sensor_id;sensor_type;location;lat;lon;timestamp;P1;durP1;ratioP1;P2;durP2;ratioP2
10410;SDS011;5251;52.112;8.606;2024-03-08T00:01:59;17.73;;;12.32;;
10410;SDS011;5251;52.112;8.606;2024-03-08T00:04:25;15.38;;;11.55;;
10410;SDS011;5251;52.112;8.606;2024-03-08T00:06:51;16.70;;;12.02;;
10410;SDS011;5251;52.112;8.606;2024-03-08T00:09:17;19.30;;;13.18;;
10410;SDS011;5251;52.112;8.606;2024-03-08T00:11:42;16.85;;;12.95;;
10410;SDS011;5251;52.112;8.606;2024-03-08T00:14:08;18.75;;;13.60;;
10410;SDS011;5251;52.112;8.606;2024-03-08T00:16:34;21.13;;;12.98;;
10410;SDS011;5251;52.112;8.606;2024-03-08T00:19:00;16.85;;;12.75;;
10410;SDS011;5251;52.112;8.606;2024-03-08T00:21:26;17.45;;;12.82;;
10410;SDS011;5251;52.112;8.606;2024-03-08T00:23:52;17.88;;;12.98;;
10410;SDS011;5251;52.112;8.606;2024-03-08T00:26:19;18.48;;;13.13;;
10410;SDS011;5251;52.112;8.606;2024-03-08T00:28:47;19.50;;;13.93;;
10410;SDS011;5251;52.112;8.606;2024-03-08T00:31:13;19.10;;;13.95;;
10410;SDS011;5251;52.112;8.606;2024-03-08T00:33:42;19.92;;;14.20;;
10410;SDS011;5251;52.112;8.606;2024-03-08T00:36:07;18.50;;;13.65;;
10410;SDS011;5251;52.112;8.606;2024-03-08T00:38:33;21.55;;;15.30;;
10410;SDS011;5251;52.112;8.606;2024-03-08T00:40:59;17.85;;;14.07;;
10410;SDS011;5251;52.112;8.606;2024-03-08T00:43:25;18.88;;;13.70;;
10410;SDS011;5251;52.112;8.606;2024-03-08T00:45:51;18.85;;;13.75;;
10410;SDS011;5251;52.112;8.606;2024-03-08T00:48:16;20.85;;;14.05;;
10410;SDS011;5251;52.112;8.606;2024-03-08T00:50:42;18.20;;;13.32;;
10410;SDS011;5251;52.112;8.606;2024-03-08T00:53:10;19.92;;;13.25;;
10410;SDS011;5251;52.112;8.606;2024-03-08T00:55:38;19.20;;;13.32;;
10410;SDS011;5251;52.112;8.606;2024-03-08T00:58:04;20.15;;;14.35;;
10410;SDS011;5251;52.112;8.606;2024-03-08T01:00:30;20.50;;;14.18;;
10410;SDS011;5251;52.112;8.606;2024-03-08T01:02:56;18.50;;;13.80;;
10410;SDS011;5251;52.112;8.606;2024-03-08T01:05:21;19.30;;;15.02;;
10410;SDS011;5251;52.112;8.606;2024-03-08T01:07:49;18.50;;;14.40;;
10410;SDS011;5251;52.112;8.606;2024-03-08T01:10:15;19.98;;;14.68;;
10410;SDS011;5251;52.112;8.606;2024-03-08T01:12:41;18.95;;;14.00;;
10410;SDS011;5251;52.112;8.606;2024-03-08T01:15:08;19.90;;;13.93;;
10410;SDS011;5251;52.112;8.606;2024-03-08T01:17:35;18.70;;;14.18;;
10410;SDS011;5251;52.112;8.606;2024-03-08T01:20:01;19.58;;;14.43;;
10410;SDS011;5251;52.112;8.606;2024-03-08T01:22:28;20.23;;;14.73;;
10410;SDS011;5251;52.112;8.606;2024-03-08T01:24:55;19.60;;;14.80;;
10410;SDS011;5251;52.112;8.606;2024-03-08T01:27:20;21.20;;;15.93;;
10410;SDS011;5251;52.112;8.606;2024-03-08T01:29:46;20.65;;;15.65;;
10410;SDS011;5251;52.112;8.606;2024-03-08T01:32:12;21.85;;;15.80;;
10410;SDS011;5251;52.112;8.606;2024-03-08T01:34:39;21.17;;;15.10;;
10410;SDS011;5251;52.112;8.606;2024-03-08T01:37:05;24.27;;;16.02;;
10410;SDS011;5251;52.112;8.606;2024-03-08T01:39:31;22.58;;;15.82;;
10410;SDS011;5251;52.112;8.606;2024-03-08T01:41:57;19.00;;;14.50;;
10410;SDS011;5251;52.112;8.606;2024-03-08T01:44:23;19.35;;;14.88;;
10410;SDS011;5251;52.112;8.606;2024-03-08T01:46:49;18.30;;;13.45;;
10410;SDS011;5251;52.112;8.606;2024-03-08T01:49:17;18.08;;;13.73;;
10410;SDS011;5251;52.112;8.606;2024-03-08T01:51:45;21.20;;;15.32;;
10410;SDS011;5251;52.112;8.606;2024-03-08T01:54:14;18.80;;;14.18;;
10410;SDS011;5251;52.112;8.606;2024-03-08T01:56:41;22.13;;;14.88;;
10410;SDS011;5251;52.112;8.606;2024-03-08T01:59:07;20.25;;;14.88;;
10410;SDS011;5251;52.112;8.606;2024-03-08T02:01:34;19.15;;;14.55;;
10410;SDS011;5251;52.112;8.606;2024-03-08T02:04:00;20.92;;;14.43;;
10410;SDS011;5251;52.112;8.606;2024-03-08T02:06:25;22.17;;;15.73;;
10410;SDS011;5251;52.112;8.606;2024-03-08T02:08:51;19.80;;;14.45;;
10410;SDS011;5251;52.112;8.606;2024-03-08T02:11:17;22.27;;;15.07;;
10410;SDS011;5251;52.112;8.606;2024-03-08T02:13:43;22.42;;;14.85;;
10410;SDS011;5251;52.112;8.606;2024-03-08T02:16:09;18.55;;;13.68;;
10410;SDS011;5251;52.112;8.606;2024-03-08T02:18:35;18.17;;;13.98;;
10410;SDS011;5251;52.112;8.606;2024-03-08T02:21:01;19.63;;;14.25;;
10410;SDS011;5251;52.112;8.606;2024-03-08T02:23:28;20.38;;;14.15;;
10410;SDS011;5251;52.112;8.606;2024-03-08T02:25:55;21.90;;;15.27;;
10410;SDS011;5251;52.112;8.606;2024-03-08T02:28:23;20.33;;;14.88;;
10410;SDS011;5251;52.112;8.606;2024-03-08T02:30:53;19.63;;;14.52;;
10410;SDS011;5251;52.112;8.606;2024-03-08T02:33:20;19.63;;;14.68;;
10410;SDS011;5251;52.112;8.606;2024-03-08T02:35:47;20.20;;;14.50;;
10410;SDS011;5251;52.112;8.606;2024-03-08T02:38:14;22.90;;;14.88;;
10410;SDS011;5251;52.112;8.606;2024-03-08T02:40:42;21.55;;;14.95;;
10410;SDS011;5251;52.112;8.606;2024-03-08T02:43:09;20.55;;;14.52;;
10410;SDS011;5251;52.112;8.606;2024-03-08T02:45:35;18.90;;;14.27;;
10410;SDS011;5251;52.112;8.606;2024-03-08T02:48:00;20.75;;;15.10;;
10410;SDS011;5251;52.112;8.606;2024-03-08T02:50:26;18.35;;;13.95;;
10410;SDS011;5251;52.112;8.606;2024-03-08T02:52:52;22.20;;;14.95;;
10410;SDS011;5251;52.112;8.606;2024-03-08T02:55:17;20.77;;;14.65;;
10410;SDS011;5251;52.112;8.606;2024-03-08T02:57:43;23.67;;;15.52;;
10410;SDS011;5251;52.112;8.606;2024-03-08T03:00:09;22.08;;;16.23;;
10410;SDS011;5251;52.112;8.606;2024-03-08T03:02:35;21.60;;;14.98;;
10410;SDS011;5251;52.112;8.606;2024-03-08T03:05:02;23.13;;;15.32;;
10410;SDS011;5251;52.112;8.606;2024-03-08T03:07:31;23.08;;;16.10;;
10410;SDS011;5251;52.112;8.606;2024-03-08T03:09:58;25.58;;;16.20;;
10410;SDS011;5251;52.112;8.606;2024-03-08T03:12:25;22.52;;;15.73;;
10410;SDS011;5251;52.112;8.606;2024-03-08T03:14:54;22.58;;;15.30;;
10410;SDS011;5251;52.112;8.606;2024-03-08T03:17:21;20.08;;;14.73;;
10410;SDS011;5251;52.112;8.606;2024-03-08T03:19:48;20.98;;;15.80;;
10410;SDS011;5251;52.112;8.606;2024-03-08T03:22:13;21.20;;;15.55;;
10410;SDS011;5251;52.112;8.606;2024-03-08T03:24:40;23.33;;;16.85;;
10410;SDS011;5251;52.112;8.606;2024-03-08T03:27:07;23.60;;;16.80;;
10410;SDS011;5251;52.112;8.606;2024-03-08T03:29:40;27.80;;;18.50;;
10410;SDS011;5251;52.112;8.606;2024-03-08T03:32:13;25.42;;;17.38;;
10410;SDS011;5251;52.112;8.606;2024-03-08T03:34:39;22.60;;;16.52;;
10410;SDS011;5251;52.112;8.606;2024-03-08T03:37:05;23.50;;;16.52;;
10410;SDS011;5251;52.112;8.606;2024-03-08T03:39:37;28.52;;;18.63;;
10410;SDS011;5251;52.112;8.606;2024-03-08T03:42:18;22.48;;;16.63;;
10410;SDS011;5251;52.112;8.606;2024-03-08T03:44:45;23.10;;;16.50;;
10410;SDS011;5251;52.112;8.606;2024-03-08T03:47:12;27.25;;;18.52;;
10410;SDS011;5251;52.112;8.606;2024-03-08T03:49:39;26.38;;;18.95;;
10410;SDS011;5251;52.112;8.606;2024-03-08T03:52:08;28.10;;;18.88;;
10410;SDS011;5251;52.112;8.606;2024-03-08T03:54:34;27.33;;;18.95;;
10410;SDS011;5251;52.112;8.606;2024-03-08T03:56:59;30.35;;;19.55;;
10410;SDS011;5251;52.112;8.606;2024-03-08T03:59:25;25.05;;;18.35;;
10410;SDS011;5251;52.112;8.606;2024-03-08T04:01:55;24.70;;;18.05;;
10410;SDS011;5251;52.112;8.606;2024-03-08T04:04:21;23.52;;;17.67;;
10410;SDS011;5251;52.112;8.606;2024-03-08T04:06:46;23.58;;;17.25;;
10410;SDS011;5251;52.112;8.606;2024-03-08T04:09:12;22.15;;;16.98;;
10410;SDS011;5251;52.112;8.606;2024-03-08T04:11:38;22.33;;;16.35;;
10410;SDS011;5251;52.112;8.606;2024-03-08T04:14:05;21.58;;;15.80;;
10410;SDS011;5251;52.112;8.606;2024-03-08T04:16:31;25.92;;;17.70;;
10410;SDS011;5251;52.112;8.606;2024-03-08T04:18:57;25.50;;;17.98;;
10410;SDS011;5251;52.112;8.606;2024-03-08T04:21:23;25.65;;;18.58;;
10410;SDS011;5251;52.112;8.606;2024-03-08T04:23:49;24.77;;;18.05;;
10410;SDS011;5251;52.112;8.606;2024-03-08T04:26:14;25.17;;;16.60;;
10410;SDS011;5251;52.112;8.606;2024-03-08T04:28:40;22.42;;;15.90;;
10410;SDS011;5251;52.112;8.606;2024-03-08T04:31:06;25.27;;;17.83;;
10410;SDS011;5251;52.112;8.606;2024-03-08T04:33:32;24.10;;;17.23;;
10410;SDS011;5251;52.112;8.606;2024-03-08T04:36:00;24.10;;;16.92;;
10410;SDS011;5251;52.112;8.606;2024-03-08T04:38:26;25.90;;;17.13;;
10410;SDS011;5251;52.112;8.606;2024-03-08T04:40:52;24.55;;;17.25;;
10410;SDS011;5251;52.112;8.606;2024-03-08T04:43:18;22.35;;;16.55;;
10410;SDS011;5251;52.112;8.606;2024-03-08T04:45:45;23.95;;;17.42;;
10410;SDS011;5251;52.112;8.606;2024-03-08T04:48:11;23.08;;;16.70;;
10410;SDS011;5251;52.112;8.606;2024-03-08T04:50:36;26.25;;;17.25;;
10410;SDS011;5251;52.112;8.606;2024-03-08T04:53:03;24.27;;;17.73;;
10410;SDS011;5251;52.112;8.606;2024-03-08T04:55:29;22.77;;;16.77;;
10410;SDS011;5251;52.112;8.606;2024-03-08T04:57:55;25.08;;;16.80;;
10410;SDS011;5251;52.112;8.606;2024-03-08T05:00:20;25.80;;;17.77;;
10410;SDS011;5251;52.112;8.606;2024-03-08T05:02:46;25.92;;;17.40;;
10410;SDS011;5251;52.112;8.606;2024-03-08T05:05:12;25.17;;;17.88;;
10410;SDS011;5251;52.112;8.606;2024-03-08T05:07:38;23.13;;;17.20;;
10410;SDS011;5251;52.112;8.606;2024-03-08T05:10:05;25.15;;;17.10;;
10410;SDS011;5251;52.112;8.606;2024-03-08T05:12:31;27.75;;;18.42;;
10410;SDS011;5251;52.112;8.606;2024-03-08T05:15:00;25.85;;;17.88;;
10410;SDS011;5251;52.112;8.606;2024-03-08T05:17:25;26.80;;;19.17;;
10410;SDS011;5251;52.112;8.606;2024-03-08T05:19:51;27.08;;;18.67;;
10410;SDS011;5251;52.112;8.606;2024-03-08T05:22:17;27.80;;;18.73;;
10410;SDS011;5251;52.112;8.606;2024-03-08T05:24:43;25.42;;;18.83;;
10410;SDS011;5251;52.112;8.606;2024-03-08T05:27:09;25.27;;;18.13;;
10410;SDS011;5251;52.112;8.606;2024-03-08T05:29:35;27.13;;;17.77;;
10410;SDS011;5251;52.112;8.606;2024-03-08T05:32:01;23.75;;;17.25;;
10410;SDS011;5251;52.112;8.606;2024-03-08T05:34:28;23.73;;;17.17;;
10410;SDS011;5251;52.112;8.606;2024-03-08T05:36:54;25.92;;;18.45;;
10410;SDS011;5251;52.112;8.606;2024-03-08T05:39:20;26.38;;;18.50;;
10410;SDS011;5251;52.112;8.606;2024-03-08T05:41:46;23.83;;;17.55;;
10410;SDS011;5251;52.112;8.606;2024-03-08T05:44:12;23.83;;;17.02;;
10410;SDS011;5251;52.112;8.606;2024-03-08T05:46:38;26.30;;;17.63;;
10410;SDS011;5251;52.112;8.606;2024-03-08T05:49:05;25.10;;;18.05;;
10410;SDS011;5251;52.112;8.606;2024-03-08T05:51:32;24.77;;;17.52;;
10410;SDS011;5251;52.112;8.606;2024-03-08T05:54:05;28.08;;;18.80;;
10410;SDS011;5251;52.112;8.606;2024-03-08T05:56:38;30.05;;;18.77;;
10410;SDS011;5251;52.112;8.606;2024-03-08T05:59:07;26.67;;;17.65;;
10410;SDS011;5251;52.112;8.606;2024-03-08T06:01:33;25.45;;;18.42;;
10410;SDS011;5251;52.112;8.606;2024-03-08T06:04:01;25.45;;;18.10;;
10410;SDS011;5251;52.112;8.606;2024-03-08T06:06:28;27.27;;;19.05;;
10410;SDS011;5251;52.112;8.606;2024-03-08T06:08:54;23.67;;;17.00;;
10410;SDS011;5251;52.112;8.606;2024-03-08T06:11:23;25.05;;;17.85;;
10410;SDS011;5251;52.112;8.606;2024-03-08T06:13:51;28.17;;;18.90;;
10410;SDS011;5251;52.112;8.606;2024-03-08T06:16:20;28.45;;;18.50;;
10410;SDS011;5251;52.112;8.606;2024-03-08T06:18:46;27.65;;;18.58;;
10410;SDS011;5251;52.112;8.606;2024-03-08T06:21:12;27.38;;;18.25;;
10410;SDS011;5251;52.112;8.606;2024-03-08T06:23:38;27.30;;;18.98;;
10410;SDS011;5251;52.112;8.606;2024-03-08T06:26:07;26.55;;;19.10;;
10410;SDS011;5251;52.112;8.606;2024-03-08T06:28:33;26.85;;;18.50;;
10410;SDS011;5251;52.112;8.606;2024-03-08T06:30:59;27.08;;;18.50;;
10410;SDS011;5251;52.112;8.606;2024-03-08T06:33:26;27.60;;;19.00;;
10410;SDS011;5251;52.112;8.606;2024-03-08T06:35:53;28.20;;;18.85;;
10410;SDS011;5251;52.112;8.606;2024-03-08T06:38:22;28.77;;;18.50;;
10410;SDS011;5251;52.112;8.606;2024-03-08T06:40:48;24.50;;;17.20;;
10410;SDS011;5251;52.112;8.606;2024-03-08T06:43:14;28.83;;;19.08;;
10410;SDS011;5251;52.112;8.606;2024-03-08T06:45:41;27.13;;;18.77;;
10410;SDS011;5251;52.112;8.606;2024-03-08T06:48:13;26.38;;;17.98;;
10410;SDS011;5251;52.112;8.606;2024-03-08T06:50:42;25.60;;;18.15;;
10410;SDS011;5251;52.112;8.606;2024-03-08T06:53:09;27.05;;;18.23;;
10410;SDS011;5251;52.112;8.606;2024-03-08T06:55:35;26.48;;;18.27;;
10410;SDS011;5251;52.112;8.606;2024-03-08T06:58:01;23.45;;;17.02;;
10410;SDS011;5251;52.112;8.606;2024-03-08T07:00:27;27.13;;;17.95;;
10410;SDS011;5251;52.112;8.606;2024-03-08T07:02:55;27.67;;;17.27;;
10410;SDS011;5251;52.112;8.606;2024-03-08T07:05:22;27.25;;;19.00;;
10410;SDS011;5251;52.112;8.606;2024-03-08T07:07:49;26.38;;;18.27;;
10410;SDS011;5251;52.112;8.606;2024-03-08T07:10:16;27.02;;;19.02;;
10410;SDS011;5251;52.112;8.606;2024-03-08T07:12:41;25.23;;;17.90;;
10410;SDS011;5251;52.112;8.606;2024-03-08T07:15:07;23.88;;;17.75;;
10410;SDS011;5251;52.112;8.606;2024-03-08T07:17:38;24.40;;;17.38;;
10410;SDS011;5251;52.112;8.606;2024-03-08T07:20:04;25.92;;;18.52;;
10410;SDS011;5251;52.112;8.606;2024-03-08T07:22:32;25.50;;;18.17;;
10410;SDS011;5251;52.112;8.606;2024-03-08T07:24:58;25.05;;;18.00;;
10410;SDS011;5251;52.112;8.606;2024-03-08T07:27:32;27.98;;;19.42;;
10410;SDS011;5251;52.112;8.606;2024-03-08T07:29:59;26.40;;;18.90;;
10410;SDS011;5251;52.112;8.606;2024-03-08T07:32:25;28.98;;;19.35;;
10410;SDS011;5251;52.112;8.606;2024-03-08T07:34:54;27.50;;;19.52;;
10410;SDS011;5251;52.112;8.606;2024-03-08T07:37:20;24.55;;;18.10;;
10410;SDS011;5251;52.112;8.606;2024-03-08T07:39:46;24.90;;;19.00;;
10410;SDS011;5251;52.112;8.606;2024-03-08T07:42:12;27.70;;;19.02;;
10410;SDS011;5251;52.112;8.606;2024-03-08T07:44:38;26.55;;;18.20;;
10410;SDS011;5251;52.112;8.606;2024-03-08T07:47:04;27.92;;;18.85;;
10410;SDS011;5251;52.112;8.606;2024-03-08T07:49:32;27.10;;;18.83;;
10410;SDS011;5251;52.112;8.606;2024-03-08T07:51:59;28.35;;;19.02;;
10410;SDS011;5251;52.112;8.606;2024-03-08T07:54:25;28.40;;;19.58;;
10410;SDS011;5251;52.112;8.606;2024-03-08T07:56:51;25.60;;;18.65;;
10410;SDS011;5251;52.112;8.606;2024-03-08T07:59:17;26.30;;;18.77;;
10410;SDS011;5251;52.112;8.606;2024-03-08T08:01:43;28.10;;;19.67;;
10410;SDS011;5251;52.112;8.606;2024-03-08T08:04:09;26.35;;;18.55;;
10410;SDS011;5251;52.112;8.606;2024-03-08T08:06:38;26.02;;;19.10;;
10410;SDS011;5251;52.112;8.606;2024-03-08T08:09:06;26.10;;;18.58;;
10410;SDS011;5251;52.112;8.606;2024-03-08T08:11:39;30.50;;;19.45;;
10410;SDS011;5251;52.112;8.606;2024-03-08T08:14:06;26.52;;;19.17;;
10410;SDS011;5251;52.112;8.606;2024-03-08T08:16:34;26.08;;;18.98;;
10410;SDS011;5251;52.112;8.606;2024-03-08T08:19:01;30.13;;;20.83;;
10410;SDS011;5251;52.112;8.606;2024-03-08T08:21:32;26.40;;;18.80;;
10410;SDS011;5251;52.112;8.606;2024-03-08T08:24:03;27.15;;;19.55;;
10410;SDS011;5251;52.112;8.606;2024-03-08T08:26:29;26.83;;;19.52;;
10410;SDS011;5251;52.112;8.606;2024-03-08T08:28:55;26.77;;;19.05;;
10410;SDS011;5251;52.112;8.606;2024-03-08T08:31:21;26.83;;;18.10;;
10410;SDS011;5251;52.112;8.606;2024-03-08T08:33:47;27.65;;;19.63;;
10410;SDS011;5251;52.112;8.606;2024-03-08T08:36:17;26.48;;;18.77;;
10410;SDS011;5251;52.112;8.606;2024-03-08T08:38:43;26.30;;;19.08;;
10410;SDS011;5251;52.112;8.606;2024-03-08T08:41:09;26.98;;;18.67;;
10410;SDS011;5251;52.112;8.606;2024-03-08T08:43:36;25.45;;;19.08;;
10410;SDS011;5251;52.112;8.606;2024-03-08T08:46:01;25.73;;;18.52;;
10410;SDS011;5251;52.112;8.606;2024-03-08T08:48:27;26.38;;;18.75;;
10410;SDS011;5251;52.112;8.606;2024-03-08T08:50:54;25.67;;;19.08;;
10410;SDS011;5251;52.112;8.606;2024-03-08T08:53:20;26.38;;;18.63;;
10410;SDS011;5251;52.112;8.606;2024-03-08T08:55:46;24.42;;;18.25;;
10410;SDS011;5251;52.112;8.606;2024-03-08T08:58:12;27.38;;;19.55;;
10410;SDS011;5251;52.112;8.606;2024-03-08T09:00:39;27.67;;;19.67;;
10410;SDS011;5251;52.112;8.606;2024-03-08T09:03:05;25.77;;;18.63;;
10410;SDS011;5251;52.112;8.606;2024-03-08T09:05:32;25.33;;;18.58;;
10410;SDS011;5251;52.112;8.606;2024-03-08T09:07:58;25.70;;;18.45;;
10410;SDS011;5251;52.112;8.606;2024-03-08T09:10:25;26.50;;;17.95;;
10410;SDS011;5251;52.112;8.606;2024-03-08T09:12:50;22.20;;;16.83;;
10410;SDS011;5251;52.112;8.606;2024-03-08T09:15:16;23.13;;;17.48;;
10410;SDS011;5251;52.112;8.606;2024-03-08T09:17:45;26.55;;;18.10;;
10410;SDS011;5251;52.112;8.606;2024-03-08T09:20:12;25.42;;;18.20;;
10410;SDS011;5251;52.112;8.606;2024-03-08T09:22:43;27.25;;;19.17;;
10410;SDS011;5251;52.112;8.606;2024-03-08T09:25:09;25.05;;;18.15;;
10410;SDS011;5251;52.112;8.606;2024-03-08T09:27:35;25.27;;;17.90;;
10410;SDS011;5251;52.112;8.606;2024-03-08T09:30:00;24.40;;;17.50;;
10410;SDS011;5251;52.112;8.606;2024-03-08T09:32:26;23.50;;;17.45;;
10410;SDS011;5251;52.112;8.606;2024-03-08T09:34:52;24.55;;;17.40;;
10410;SDS011;5251;52.112;8.606;2024-03-08T09:37:17;23.70;;;17.02;;
10410;SDS011;5251;52.112;8.606;2024-03-08T09:39:44;22.45;;;16.98;;
10410;SDS011;5251;52.112;8.606;2024-03-08T09:42:10;23.05;;;16.98;;
10410;SDS011;5251;52.112;8.606;2024-03-08T09:44:39;23.30;;;16.27;;
10410;SDS011;5251;52.112;8.606;2024-03-08T09:47:14;22.65;;;16.25;;
10410;SDS011;5251;52.112;8.606;2024-03-08T09:49:41;25.10;;;17.42;;
10410;SDS011;5251;52.112;8.606;2024-03-08T09:52:08;22.77;;;16.13;;
10410;SDS011;5251;52.112;8.606;2024-03-08T09:54:35;23.20;;;17.10;;
10410;SDS011;5251;52.112;8.606;2024-03-08T09:57:02;21.90;;;16.77;;
10410;SDS011;5251;52.112;8.606;2024-03-08T09:59:29;21.85;;;16.50;;
10410;SDS011;5251;52.112;8.606;2024-03-08T10:02:01;20.38;;;15.82;;
10410;SDS011;5251;52.112;8.606;2024-03-08T10:04:28;20.92;;;16.25;;
10410;SDS011;5251;52.112;8.606;2024-03-08T10:06:57;22.38;;;15.68;;
10410;SDS011;5251;52.112;8.606;2024-03-08T10:09:24;21.45;;;15.50;;
10410;SDS011;5251;52.112;8.606;2024-03-08T10:12:01;23.00;;;16.27;;
10410;SDS011;5251;52.112;8.606;2024-03-08T10:14:27;21.73;;;15.57;;
10410;SDS011;5251;52.112;8.606;2024-03-08T10:16:53;22.67;;;16.40;;
10410;SDS011;5251;52.112;8.606;2024-03-08T10:19:19;20.10;;;14.82;;
10410;SDS011;5251;52.112;8.606;2024-03-08T10:21:51;18.85;;;14.25;;
10410;SDS011;5251;52.112;8.606;2024-03-08T10:24:22;21.55;;;15.75;;
10410;SDS011;5251;52.112;8.606;2024-03-08T10:26:52;21.63;;;15.90;;
10410;SDS011;5251;52.112;8.606;2024-03-08T10:29:18;18.33;;;14.88;;
10410;SDS011;5251;52.112;8.606;2024-03-08T10:31:44;19.88;;;14.80;;
10410;SDS011;5251;52.112;8.606;2024-03-08T10:34:10;18.77;;;14.85;;
10410;SDS011;5251;52.112;8.606;2024-03-08T10:36:36;19.58;;;14.05;;
10410;SDS011;5251;52.112;8.606;2024-03-08T10:39:03;19.25;;;13.80;;
10410;SDS011;5251;52.112;8.606;2024-03-08T10:41:45;21.95;;;13.95;;
10410;SDS011;5251;52.112;8.606;2024-03-08T10:49:45;19.48;;;14.65;;
10410;SDS011;5251;52.112;8.606;2024-03-08T10:52:18;17.77;;;13.23;;
10410;SDS011;5251;52.112;8.606;2024-03-08T10:54:44;20.05;;;14.45;;
10410;SDS011;5251;52.112;8.606;2024-03-08T10:57:10;18.30;;;13.75;;
10410;SDS011;5251;52.112;8.606;2024-03-08T10:59:38;18.63;;;14.27;;
10410;SDS011;5251;52.112;8.606;2024-03-08T11:02:04;18.90;;;13.73;;
10410;SDS011;5251;52.112;8.606;2024-03-08T11:04:33;19.10;;;14.27;;
10410;SDS011;5251;52.112;8.606;2024-03-08T11:07:02;17.85;;;13.00;;
10410;SDS011;5251;52.112;8.606;2024-03-08T11:09:33;20.35;;;14.60;;
10410;SDS011;5251;52.112;8.606;2024-03-08T11:12:21;20.55;;;14.10;;
10410;SDS011;5251;52.112;8.606;2024-03-08T11:14:51;18.23;;;13.75;;
10410;SDS011;5251;52.112;8.606;2024-03-08T11:18:01;17.88;;;13.60;;
10410;SDS011;5251;52.112;8.606;2024-03-08T11:20:11;19.48;;;14.93;;
10410;SDS011;5251;52.112;8.606;2024-03-08T11:22:41;18.52;;;13.93;;
10410;SDS011;5251;52.112;8.606;2024-03-08T11:30:44;16.50;;;13.40;;
10410;SDS011;5251;52.112;8.606;2024-03-08T11:33:12;18.05;;;13.35;;
10410;SDS011;5251;52.112;8.606;2024-03-08T11:35:38;19.27;;;13.68;;
10410;SDS011;5251;52.112;8.606;2024-03-08T11:38:07;17.05;;;12.88;;
10410;SDS011;5251;52.112;8.606;2024-03-08T11:40:34;17.38;;;12.95;;
10410;SDS011;5251;52.112;8.606;2024-03-08T11:43:00;15.07;;;12.20;;
10410;SDS011;5251;52.112;8.606;2024-03-08T11:45:32;17.85;;;12.70;;
10410;SDS011;5251;52.112;8.606;2024-03-08T11:48:01;18.67;;;12.70;;
10410;SDS011;5251;52.112;8.606;2024-03-08T11:50:28;17.77;;;13.05;;
10410;SDS011;5251;52.112;8.606;2024-03-08T11:52:59;16.25;;;12.40;;
10410;SDS011;5251;52.112;8.606;2024-03-08T11:55:27;16.33;;;12.65;;
10410;SDS011;5251;52.112;8.606;2024-03-08T11:58:03;15.35;;;11.27;;
10410;SDS011;5251;52.112;8.606;2024-03-08T12:00:29;17.08;;;12.90;;
10410;SDS011;5251;52.112;8.606;2024-03-08T12:03:07;18.67;;;12.25;;
10410;SDS011;5251;52.112;8.606;2024-03-08T12:05:37;19.88;;;12.75;;
10410;SDS011;5251;52.112;8.606;2024-03-08T12:08:03;16.67;;;12.02;;
10410;SDS011;5251;52.112;8.606;2024-03-08T12:10:34;16.67;;;12.88;;
10410;SDS011;5251;52.112;8.606;2024-03-08T12:13:00;18.08;;;13.85;;
10410;SDS011;5251;52.112;8.606;2024-03-08T12:15:26;18.38;;;13.82;;
10410;SDS011;5251;52.112;8.606;2024-03-08T12:17:53;17.65;;;13.63;;
10410;SDS011;5251;52.112;8.606;2024-03-08T12:20:24;18.85;;;14.55;;
10410;SDS011;5251;52.112;8.606;2024-03-08T12:22:52;19.25;;;13.60;;
10410;SDS011;5251;52.112;8.606;2024-03-08T12:25:19;17.00;;;13.02;;
10410;SDS011;5251;52.112;8.606;2024-03-08T12:27:45;18.48;;;14.05;;
10410;SDS011;5251;52.112;8.606;2024-03-08T12:30:16;17.65;;;13.68;;
10410;SDS011;5251;52.112;8.606;2024-03-08T12:32:47;16.67;;;13.13;;
10410;SDS011;5251;52.112;8.606;2024-03-08T12:35:22;20.00;;;14.52;;
10410;SDS011;5251;52.112;8.606;2024-03-08T12:37:50;16.23;;;12.68;;
10410;SDS011;5251;52.112;8.606;2024-03-08T12:40:18;17.20;;;13.35;;
10410;SDS011;5251;52.112;8.606;2024-03-08T12:42:45;18.90;;;13.48;;
10410;SDS011;5251;52.112;8.606;2024-03-08T12:45:12;18.23;;;13.32;;
10410;SDS011;5251;52.112;8.606;2024-03-08T12:47:39;17.15;;;12.68;;
10410;SDS011;5251;52.112;8.606;2024-03-08T12:50:07;20.73;;;14.23;;
10410;SDS011;5251;52.112;8.606;2024-03-08T12:52:34;17.95;;;13.88;;
10410;SDS011;5251;52.112;8.606;2024-03-08T12:54:59;16.05;;;12.23;;
10410;SDS011;5251;52.112;8.606;2024-03-08T12:57:32;16.67;;;12.80;;
10410;SDS011;5251;52.112;8.606;2024-03-08T12:59:59;17.40;;;12.90;;
10410;SDS011;5251;52.112;8.606;2024-03-08T13:02:25;17.05;;;13.35;;
10410;SDS011;5251;52.112;8.606;2024-03-08T13:04:51;17.35;;;13.07;;
10410;SDS011;5251;52.112;8.606;2024-03-08T13:07:22;17.08;;;13.48;;
10410;SDS011;5251;52.112;8.606;2024-03-08T13:09:50;19.70;;;13.90;;
10410;SDS011;5251;52.112;8.606;2024-03-08T13:12:18;17.63;;;14.40;;
10410;SDS011;5251;52.112;8.606;2024-03-08T13:14:45;19.13;;;13.23;;
10410;SDS011;5251;52.112;8.606;2024-03-08T13:17:11;17.85;;;13.55;;
10410;SDS011;5251;52.112;8.606;2024-03-08T13:19:37;18.92;;;13.10;;
10410;SDS011;5251;52.112;8.606;2024-03-08T13:22:03;17.60;;;13.73;;
10410;SDS011;5251;52.112;8.606;2024-03-08T13:24:30;17.02;;;13.20;;
10410;SDS011;5251;52.112;8.606;2024-03-08T13:26:55;17.83;;;13.68;;
10410;SDS011;5251;52.112;8.606;2024-03-08T13:29:22;17.98;;;13.25;;
10410;SDS011;5251;52.112;8.606;2024-03-08T13:31:48;19.05;;;14.25;;
10410;SDS011;5251;52.112;8.606;2024-03-08T13:34:16;19.60;;;13.20;;
10410;SDS011;5251;52.112;8.606;2024-03-08T13:36:43;18.42;;;13.73;;
10410;SDS011;5251;52.112;8.606;2024-03-08T13:39:10;16.27;;;12.75;;
10410;SDS011;5251;52.112;8.606;2024-03-08T13:41:40;17.55;;;13.35;;
10410;SDS011;5251;52.112;8.606;2024-03-08T13:44:10;21.45;;;14.77;;
10410;SDS011;5251;52.112;8.606;2024-03-08T13:46:35;19.40;;;14.70;;
10410;SDS011;5251;52.112;8.606;2024-03-08T13:49:05;20.15;;;14.30;;
10410;SDS011;5251;52.112;8.606;2024-03-08T13:51:36;19.63;;;14.50;;
10410;SDS011;5251;52.112;8.606;2024-03-08T13:54:02;18.05;;;13.85;;
10410;SDS011;5251;52.112;8.606;2024-03-08T13:56:27;18.80;;;14.05;;
10410;SDS011;5251;52.112;8.606;2024-03-08T13:58:56;16.35;;;12.95;;
10410;SDS011;5251;52.112;8.606;2024-03-08T14:01:22;19.30;;;14.40;;
10410;SDS011;5251;52.112;8.606;2024-03-08T14:03:48;18.80;;;14.50;;
10410;SDS011;5251;52.112;8.606;2024-03-08T14:06:14;18.77;;;14.27;;
10410;SDS011;5251;52.112;8.606;2024-03-08T14:08:40;18.60;;;14.40;;
10410;SDS011;5251;52.112;8.606;2024-03-08T14:11:05;20.85;;;14.77;;
10410;SDS011;5251;52.112;8.606;2024-03-08T14:13:44;19.45;;;14.70;;
10410;SDS011;5251;52.112;8.606;2024-03-08T14:16:13;20.25;;;14.25;;
10410;SDS011;5251;52.112;8.606;2024-03-08T14:18:40;19.35;;;14.27;;
10410;SDS011;5251;52.112;8.606;2024-03-08T14:21:06;19.88;;;14.77;;
10410;SDS011;5251;52.112;8.606;2024-03-08T14:23:35;19.15;;;14.20;;
10410;SDS011;5251;52.112;8.606;2024-03-08T14:26:01;19.15;;;14.68;;
10410;SDS011;5251;52.112;8.606;2024-03-08T14:28:27;19.58;;;13.98;;
10410;SDS011;5251;52.112;8.606;2024-03-08T14:30:53;18.45;;;14.13;;
10410;SDS011;5251;52.112;8.606;2024-03-08T14:33:19;19.73;;;15.20;;
10410;SDS011;5251;52.112;8.606;2024-03-08T14:35:45;18.90;;;14.27;;
10410;SDS011;5251;52.112;8.606;2024-03-08T14:38:14;19.58;;;14.60;;
10410;SDS011;5251;52.112;8.606;2024-03-08T14:40:42;20.83;;;15.32;;
10410;SDS011;5251;52.112;8.606;2024-03-08T14:43:11;20.73;;;14.75;;
10410;SDS011;5251;52.112;8.606;2024-03-08T14:45:38;19.55;;;14.80;;